sensor_id;sensor_type;location;lat;lon;timestamp;pressure;altitude;pressure_sealevel;temperature;humidity
13029;BME280;6581;42.662;23.402;2023-01-08T00:01:23;95888.41;;;2.40;100.00
13029;BME280;6581;42.662;23.402;2023-01-08T00:03:50;95874.72;;;2.43;100.00
13029;BME280;6581;42.662;23.402;2023-01-08T00:06:18;95882.38;;;2.40;100.00
13029;BME280;6581;42.662;23.402;2023-01-08T00:08:46;95880.38;;;2.37;100.00
13029;BME280;6581;42.662;23.402;2023-01-08T00:11:13;95886.75;;;2.44;100.00
13029;BME280;6581;42.662;23.402;2023-01-08T00:13:40;95882.69;;;2.38;100.00
13029;BME280;6581;42.662;23.402;2023-01-08T00:16:09;95883.84;;;2.46;100.00
13029;BME280;6581;42.662;23.402;2023-01-08T00:18:38;95880.47;;;2.45;100.00
13029;BME280;6581;42.662;23.402;2023-01-08T00:21:05;95875.13;;;2.50;100.00
13029;BME280;6581;42.662;23.402;2023-01-08T00:23:33;95885.09;;;2.48;100.00
13029;BME280;6581;42.662;23.402;2023-01-08T00:26:00;95868.16;;;2.46;100.00
13029;BME280;6581;42.662;23.402;2023-01-08T00:28:28;95870.50;;;2.47;100.00
13029;BME280;6581;42.662;23.402;2023-01-08T00:30:56;95872.72;;;2.40;100.00
13029;BME280;6581;42.662;23.402;2023-01-08T00:33:23;95879.00;;;2.39;100.00
13029;BME280;6581;42.662;23.402;2023-01-08T00:35:52;95880.75;;;2.30;100.00
13029;BME280;6581;42.662;23.402;2023-01-08T00:38:19;95877.84;;;2.18;100.00
13029;BME280;6581;42.662;23.402;2023-01-08T00:40:47;95879.94;;;2.16;100.00
13029;BME280;6581;42.662;23.402;2023-01-08T00:43:14;95882.00;;;2.19;100.00
13029;BME280;6581;42.662;23.402;2023-01-08T00:45:41;95886.47;;;2.18;100.00
13029;BME280;6581;42.662;23.402;2023-01-08T00:48:08;95882.56;;;2.16;100.00
13029;BME280;6581;42.662;23.402;2023-01-08T00:50:36;95876.44;;;2.07;100.00
13029;BME280;6581;42.662;23.402;2023-01-08T00:53:04;95872.50;;;2.09;100.00
13029;BME280;6581;42.662;23.402;2023-01-08T00:55:31;95874.06;;;2.10;100.00
13029;BME280;6581;42.662;23.402;2023-01-08T00:57:58;95872.31;;;2.06;100.00
13029;BME280;6581;42.662;23.402;2023-01-08T01:00:25;95875.28;;;1.99;100.00
13029;BME280;6581;42.662;23.402;2023-01-08T01:02:53;95881.22;;;2.05;100.00
13029;BME280;6581;42.662;23.402;2023-01-08T01:05:20;95880.88;;;1.93;100.00
13029;BME280;6581;42.662;23.402;2023-01-08T01:07:47;95887.75;;;1.89;100.00
13029;BME280;6581;42.662;23.402;2023-01-08T01:10:16;95878.53;;;1.77;100.00
13029;BME280;6581;42.662;23.402;2023-01-08T01:12:43;95880.56;;;1.81;100.00
13029;BME280;6581;42.662;23.402;2023-01-08T01:15:13;95883.75;;;1.77;100.00
13029;BME280;6581;42.662;23.402;2023-01-08T01:17:42;95879.09;;;1.74;100.00
13029;BME280;6581;42.662;23.402;2023-01-08T01:20:11;95879.69;;;1.71;100.00
13029;BME280;6581;42.662;23.402;2023-01-08T01:22:39;95877.66;;;1.68;100.00
13029;BME280;6581;42.662;23.402;2023-01-08T01:25:07;95878.34;;;1.74;100.00
13029;BME280;6581;42.662;23.402;2023-01-08T01:27:36;95878.75;;;1.81;100.00
13029;BME280;6581;42.662;23.402;2023-01-08T01:30:04;95872.44;;;1.68;100.00
13029;BME280;6581;42.662;23.402;2023-01-08T01:32:31;95869.81;;;1.68;100.00
13029;BME280;6581;42.662;23.402;2023-01-08T01:34:59;95875.50;;;1.70;100.00
13029;BME280;6581;42.662;23.402;2023-01-08T01:37:26;95870.38;;;1.65;100.00
13029;BME280;6581;42.662;23.402;2023-01-08T01:39:53;95873.41;;;1.72;100.00
13029;BME280;6581;42.662;23.402;2023-01-08T01:42:21;95868.53;;;1.66;100.00
13029;BME280;6581;42.662;23.402;2023-01-08T01:45:16;95866.16;;;1.69;100.00
13029;BME280;6581;42.662;23.402;2023-01-08T01:47:45;95863.63;;;1.64;100.00
13029;BME280;6581;42.662;23.402;2023-01-08T01:50:16;95862.34;;;1.62;100.00
13029;BME280;6581;42.662;23.402;2023-01-08T01:52:48;95869.03;;;1.68;100.00
13029;BME280;6581;42.662;23.402;2023-01-08T01:55:17;95858.50;;;1.73;100.00
13029;BME280;6581;42.662;23.402;2023-01-08T01:57:48;95860.34;;;1.72;100.00
13029;BME280;6581;42.662;23.402;2023-01-08T02:00:19;95859.72;;;1.62;100.00
13029;BME280;6581;42.662;23.402;2023-01-08T02:02:48;95855.66;;;1.56;100.00
13029;BME280;6581;42.662;23.402;2023-01-08T02:05:16;95864.78;;;1.40;100.00
13029;BME280;6581;42.662;23.402;2023-01-08T02:07:49;95860.41;;;1.35;100.00
13029;BME280;6581;42.662;23.402;2023-01-08T02:10:25;95853.34;;;1.36;100.00
13029;BME280;6581;42.662;23.402;2023-01-08T02:12:57;95851.72;;;1.40;100.00
13029;BME280;6581;42.662;23.402;2023-01-08T02:15:34;95851.03;;;1.34;100.00
13029;BME280;6581;42.662;23.402;2023-01-08T02:18:06;95849.19;;;1.34;100.00
13029;BME280;6581;42.662;23.402;2023-01-08T02:20:36;95843.13;;;1.20;100.00
13029;BME280;6581;42.662;23.402;2023-01-08T02:23:13;95848.03;;;1.08;100.00
13029;BME280;6581;42.662;23.402;2023-01-08T02:26:03;95843.59;;;1.09;100.00
13029;BME280;6581;42.662;23.402;2023-01-08T02:28:37;95843.66;;;1.04;100.00
13029;BME280;6581;42.662;23.402;2023-01-08T02:31:06;95834.13;;;0.94;100.00
13029;BME280;6581;42.662;23.402;2023-01-08T02:33:33;95828.59;;;1.01;100.00
13029;BME280;6581;42.662;23.402;2023-01-08T02:36:19;95836.53;;;1.09;100.00
13029;BME280;6581;42.662;23.402;2023-01-08T02:38:59;95844.13;;;1.06;100.00
13029;BME280;6581;42.662;23.402;2023-01-08T02:41:36;95826.44;;;1.03;100.00
13029;BME280;6581;42.662;23.402;2023-01-08T02:44:08;95836.22;;;1.11;100.00
13029;BME280;6581;42.662;23.402;2023-01-08T02:46:40;95823.63;;;0.99;100.00
13029;BME280;6581;42.662;23.402;2023-01-08T02:49:09;95829.69;;;0.95;100.00
13029;BME280;6581;42.662;23.402;2023-01-08T02:51:42;95827.09;;;0.95;100.00
13029;BME280;6581;42.662;23.402;2023-01-08T02:54:15;95819.53;;;0.93;100.00
13029;BME280;6581;42.662;23.402;2023-01-08T02:56:48;95824.75;;;0.93;100.00
13029;BME280;6581;42.662;23.402;2023-01-08T02:59:16;95821.94;;;0.89;100.00
13029;BME280;6581;42.662;23.402;2023-01-08T03:01:45;95824.75;;;0.93;100.00
13029;BME280;6581;42.662;23.402;2023-01-08T03:04:15;95828.00;;;0.85;100.00
13029;BME280;6581;42.662;23.402;2023-01-08T03:06:43;95831.53;;;0.94;100.00
13029;BME280;6581;42.662;23.402;2023-01-08T03:09:11;95834.28;;;0.84;100.00
13029;BME280;6581;42.662;23.402;2023-01-08T03:11:42;95826.50;;;0.79;100.00
13029;BME280;6581;42.662;23.402;2023-01-08T03:14:18;95831.47;;;0.80;100.00
13029;BME280;6581;42.662;23.402;2023-01-08T03:16:48;95834.25;;;0.65;100.00
13029;BME280;6581;42.662;23.402;2023-01-08T03:19:22;95841.25;;;0.70;100.00
13029;BME280;6581;42.662;23.402;2023-01-08T03:22:14;95841.81;;;0.67;100.00
13029;BME280;6581;42.662;23.402;2023-01-08T03:24:45;95845.25;;;0.62;100.00
13029;BME280;6581;42.662;23.402;2023-01-08T03:27:17;95832.13;;;0.49;100.00
13029;BME280;6581;42.662;23.402;2023-01-08T03:29:49;95844.28;;;0.34;100.00
13029;BME280;6581;42.662;23.402;2023-01-08T03:32:18;95833.81;;;0.39;100.00
13029;BME280;6581;42.662;23.402;2023-01-08T03:34:49;95838.25;;;0.39;100.00
13029;BME280;6581;42.662;23.402;2023-01-08T03:37:21;95836.38;;;0.44;100.00
13029;BME280;6581;42.662;23.402;2023-01-08T03:39:56;95829.59;;;0.43;100.00
13029;BME280;6581;42.662;23.402;2023-01-08T03:42:26;95834.69;;;0.54;100.00
13029;BME280;6581;42.662;23.402;2023-01-08T03:45:21;95829.81;;;0.47;100.00
13029;BME280;6581;42.662;23.402;2023-01-08T03:47:50;95833.81;;;0.39;100.00
13029;BME280;6581;42.662;23.402;2023-01-08T03:50:21;95827.69;;;0.49;100.00
13029;BME280;6581;42.662;23.402;2023-01-08T03:52:49;95827.13;;;0.52;100.00
13029;BME280;6581;42.662;23.402;2023-01-08T03:55:16;95824.72;;;0.37;100.00
13029;BME280;6581;42.662;23.402;2023-01-08T03:57:43;95833.59;;;0.36;100.00
13029;BME280;6581;42.662;23.402;2023-01-08T04:00:11;95829.38;;;0.40;100.00
13029;BME280;6581;42.662;23.402;2023-01-08T04:02:40;95831.59;;;0.28;100.00
13029;BME280;6581;42.662;23.402;2023-01-08T04:05:08;95833.72;;;0.26;100.00
13029;BME280;6581;42.662;23.402;2023-01-08T04:07:35;95836.31;;;0.26;100.00
13029;BME280;6581;42.662;23.402;2023-01-08T04:10:03;95834.91;;;0.33;100.00
13029;BME280;6581;42.662;23.402;2023-01-08T04:12:31;95838.56;;;0.32;100.00
13029;BME280;6581;42.662;23.402;2023-01-08T04:14:58;95832.88;;;0.30;100.00
13029;BME280;6581;42.662;23.402;2023-01-08T04:17:25;95838.97;;;0.44;100.00
13029;BME280;6581;42.662;23.402;2023-01-08T04:19:53;95839.69;;;0.26;100.00
13029;BME280;6581;42.662;23.402;2023-01-08T04:22:20;95841.19;;;0.32;100.00
13029;BME280;6581;42.662;23.402;2023-01-08T04:24:47;95836.75;;;0.33;100.00
13029;BME280;6581;42.662;23.402;2023-01-08T04:27:15;95833.97;;;0.24;100.00
13029;BME280;6581;42.662;23.402;2023-01-08T04:29:42;95835.59;;;0.20;100.00
13029;BME280;6581;42.662;23.402;2023-01-08T04:32:09;95845.28;;;0.15;100.00
13029;BME280;6581;42.662;23.402;2023-01-08T04:34:36;95844.81;;;0.13;100.00
13029;BME280;6581;42.662;23.402;2023-01-08T04:37:04;95841.03;;;0.00;100.00
13029;BME280;6581;42.662;23.402;2023-01-08T04:39:31;95848.56;;;0.02;100.00
13029;BME280;6581;42.662;23.402;2023-01-08T04:41:58;95842.00;;;0.09;100.00
13029;BME280;6581;42.662;23.402;2023-01-08T04:44:25;95845.75;;;-0.02;100.00
13029;BME280;6581;42.662;23.402;2023-01-08T04:46:53;95839.47;;;-0.01;100.00
13029;BME280;6581;42.662;23.402;2023-01-08T04:49:20;95839.44;;;0.04;100.00
13029;BME280;6581;42.662;23.402;2023-01-08T04:51:47;95839.66;;;0.08;100.00
13029;BME280;6581;42.662;23.402;2023-01-08T04:54:15;95848.56;;;0.02;100.00
13029;BME280;6581;42.662;23.402;2023-01-08T04:56:42;95843.09;;;0.03;100.00
13029;BME280;6581;42.662;23.402;2023-01-08T04:59:09;95847.00;;;0.00;100.00
13029;BME280;6581;42.662;23.402;2023-01-08T05:01:36;95842.13;;;-0.06;100.00
13029;BME280;6581;42.662;23.402;2023-01-08T05:04:04;95846.63;;;-0.12;100.00
13029;BME280;6581;42.662;23.402;2023-01-08T05:06:31;95853.16;;;-0.14;100.00
13029;BME280;6581;42.662;23.402;2023-01-08T05:09:00;95855.22;;;-0.11;100.00
13029;BME280;6581;42.662;23.402;2023-01-08T05:11:28;95857.03;;;-0.12;100.00
13029;BME280;6581;42.662;23.402;2023-01-08T05:13:55;95851.50;;;-0.34;100.00
13029;BME280;6581;42.662;23.402;2023-01-08T05:16:23;95853.06;;;-0.33;100.00
13029;BME280;6581;42.662;23.402;2023-01-08T05:18:51;95853.50;;;-0.26;100.00
13029;BME280;6581;42.662;23.402;2023-01-08T05:21:18;95848.81;;;-0.24;100.00
13029;BME280;6581;42.662;23.402;2023-01-08T05:23:46;95856.38;;;-0.27;100.00
13029;BME280;6581;42.662;23.402;2023-01-08T05:26:13;95857.50;;;-0.33;100.00
13029;BME280;6581;42.662;23.402;2023-01-08T05:28:42;95852.28;;;-0.33;100.00
13029;BME280;6581;42.662;23.402;2023-01-08T05:31:09;95845.66;;;-0.50;100.00
13029;BME280;6581;42.662;23.402;2023-01-08T05:33:37;95861.53;;;-0.46;100.00
13029;BME280;6581;42.662;23.402;2023-01-08T05:36:05;95860.69;;;-0.41;100.00
13029;BME280;6581;42.662;23.402;2023-01-08T05:38:33;95860.97;;;-0.43;100.00
13029;BME280;6581;42.662;23.402;2023-01-08T05:41:00;95864.06;;;-0.41;100.00
13029;BME280;6581;42.662;23.402;2023-01-08T05:43:28;95860.31;;;-0.59;100.00
13029;BME280;6581;42.662;23.402;2023-01-08T05:45:58;95857.34;;;-0.47;100.00
13029;BME280;6581;42.662;23.402;2023-01-08T05:48:25;95856.63;;;-0.53;100.00
13029;BME280;6581;42.662;23.402;2023-01-08T05:50:52;95858.19;;;-0.52;100.00
13029;BME280;6581;42.662;23.402;2023-01-08T05:53:20;95856.84;;;-0.49;100.00
13029;BME280;6581;42.662;23.402;2023-01-08T05:55:47;95857.31;;;-0.42;100.00
13029;BME280;6581;42.662;23.402;2023-01-08T05:58:14;95863.31;;;-0.41;100.00
13029;BME280;6581;42.662;23.402;2023-01-08T06:00:44;95862.09;;;-0.54;100.00
13029;BME280;6581;42.662;23.402;2023-01-08T06:03:12;95858.69;;;-0.55;100.00
13029;BME280;6581;42.662;23.402;2023-01-08T06:05:39;95863.19;;;-0.60;100.00
13029;BME280;6581;42.662;23.402;2023-01-08T06:08:06;95861.38;;;-0.60;100.00
13029;BME280;6581;42.662;23.402;2023-01-08T06:10:33;95861.84;;;-0.58;100.00
13029;BME280;6581;42.662;23.402;2023-01-08T06:13:00;95856.38;;;-0.56;100.00
13029;BME280;6581;42.662;23.402;2023-01-08T06:15:27;95859.25;;;-0.58;100.00
13029;BME280;6581;42.662;23.402;2023-01-08T06:17:54;95869.13;;;-0.55;100.00
13029;BME280;6581;42.662;23.402;2023-01-08T06:20:23;95865.47;;;-0.54;100.00
13029;BME280;6581;42.662;23.402;2023-01-08T06:22:52;95865.91;;;-0.41;100.00
13029;BME280;6581;42.662;23.402;2023-01-08T06:25:20;95868.72;;;-0.38;100.00
13029;BME280;6581;42.662;23.402;2023-01-08T06:27:50;95866.63;;;-0.36;100.00
13029;BME280;6581;42.662;23.402;2023-01-08T06:30:17;95872.59;;;-0.35;100.00
13029;BME280;6581;42.662;23.402;2023-01-08T06:32:44;95877.06;;;-0.41;100.00
13029;BME280;6581;42.662;23.402;2023-01-08T06:35:11;95881.88;;;-0.53;100.00
13029;BME280;6581;42.662;23.402;2023-01-08T06:37:39;95879.81;;;-0.56;100.00
13029;BME280;6581;42.662;23.402;2023-01-08T06:40:07;95883.22;;;-0.61;100.00
13029;BME280;6581;42.662;23.402;2023-01-08T06:42:34;95879.59;;;-0.60;100.00
13029;BME280;6581;42.662;23.402;2023-01-08T06:45:01;95884.69;;;-0.50;100.00
13029;BME280;6581;42.662;23.402;2023-01-08T06:47:28;95886.47;;;-0.45;100.00
13029;BME280;6581;42.662;23.402;2023-01-08T06:49:55;95889.56;;;-0.38;100.00
13029;BME280;6581;42.662;23.402;2023-01-08T06:52:23;95895.72;;;-0.29;100.00
13029;BME280;6581;42.662;23.402;2023-01-08T06:54:52;95889.47;;;-0.28;100.00
13029;BME280;6581;42.662;23.402;2023-01-08T06:57:19;95902.94;;;-0.21;100.00
13029;BME280;6581;42.662;23.402;2023-01-08T06:59:46;95895.06;;;-0.11;100.00
13029;BME280;6581;42.662;23.402;2023-01-08T07:02:14;95893.22;;;-0.10;100.00
13029;BME280;6581;42.662;23.402;2023-01-08T07:04:42;95895.44;;;0.02;100.00
13029;BME280;6581;42.662;23.402;2023-01-08T07:07:11;95893.88;;;0.00;100.00
13029;BME280;6581;42.662;23.402;2023-01-08T07:09:38;95899.88;;;0.01;100.00
13029;BME280;6581;42.662;23.402;2023-01-08T07:12:10;95896.91;;;0.13;100.00
13029;BME280;6581;42.662;23.402;2023-01-08T07:14:37;95908.00;;;0.23;100.00
13029;BME280;6581;42.662;23.402;2023-01-08T07:17:05;95908.22;;;0.27;100.00
13029;BME280;6581;42.662;23.402;2023-01-08T07:19:33;95908.19;;;0.32;100.00
13029;BME280;6581;42.662;23.402;2023-01-08T07:22:00;95905.34;;;0.28;100.00
13029;BME280;6581;42.662;23.402;2023-01-08T07:24:28;95906.06;;;0.34;100.00
13029;BME280;6581;42.662;23.402;2023-01-08T07:26:55;95908.63;;;0.39;100.00
13029;BME280;6581;42.662;23.402;2023-01-08T07:29:24;95901.22;;;0.46;100.00
13029;BME280;6581;42.662;23.402;2023-01-08T07:31:51;95904.28;;;0.53;100.00
13029;BME280;6581;42.662;23.402;2023-01-08T07:34:19;95907.38;;;0.55;100.00
13029;BME280;6581;42.662;23.402;2023-01-08T07:36:46;95902.88;;;0.61;100.00
13029;BME280;6581;42.662;23.402;2023-01-08T07:39:13;95904.44;;;0.62;100.00
13029;BME280;6581;42.662;23.402;2023-01-08T07:42:05;95912.13;;;0.53;100.00
13029;BME280;6581;42.662;23.402;2023-01-08T07:44:33;95921.25;;;0.51;100.00
13029;BME280;6581;42.662;23.402;2023-01-08T07:47:00;95912.31;;;0.57;100.00
13029;BME280;6581;42.662;23.402;2023-01-08T07:49:27;95914.44;;;0.55;100.00
13029;BME280;6581;42.662;23.402;2023-01-08T07:51:54;95914.97;;;0.75;100.00
13029;BME280;6581;42.662;23.402;2023-01-08T07:54:21;95914.97;;;0.75;100.00
13029;BME280;6581;42.662;23.402;2023-01-08T07:56:48;95920.13;;;0.80;100.00
13029;BME280;6581;42.662;23.402;2023-01-08T07:59:15;95917.84;;;0.74;100.00
13029;BME280;6581;42.662;23.402;2023-01-08T08:01:44;95921.13;;;0.84;100.00
13029;BME280;6581;42.662;23.402;2023-01-08T08:04:13;95916.06;;;0.93;100.00
13029;BME280;6581;42.662;23.402;2023-01-08T08:06:40;95910.72;;;1.03;100.00
13029;BME280;6581;42.662;23.402;2023-01-08T08:09:07;95913.06;;;1.05;100.00
13029;BME280;6581;42.662;23.402;2023-01-08T08:11:34;95918.47;;;1.08;100.00
13029;BME280;6581;42.662;23.402;2023-01-08T08:14:03;95918.63;;;1.17;100.00
13029;BME280;6581;42.662;23.402;2023-01-08T08:16:30;95911.97;;;1.24;100.00
13029;BME280;6581;42.662;23.402;2023-01-08T08:18:59;95915.44;;;1.20;100.00
13029;BME280;6581;42.662;23.402;2023-01-08T08:21:26;95909.59;;;1.28;100.00
13029;BME280;6581;42.662;23.402;2023-01-08T08:23:54;95912.03;;;1.38;100.00
13029;BME280;6581;42.662;23.402;2023-01-08T08:26:22;95911.41;;;1.46;100.00
13029;BME280;6581;42.662;23.402;2023-01-08T08:28:49;95915.78;;;1.51;100.00
13029;BME280;6581;42.662;23.402;2023-01-08T08:31:16;95911.59;;;1.68;100.00
13029;BME280;6581;42.662;23.402;2023-01-08T08:33:43;95921.91;;;1.78;100.00
13029;BME280;6581;42.662;23.402;2023-01-08T08:36:11;95912.91;;;1.85;100.00
13029;BME280;6581;42.662;23.402;2023-01-08T08:38:38;95912.81;;;1.90;100.00
13029;BME280;6581;42.662;23.402;2023-01-08T08:41:29;95917.59;;;2.01;100.00
13029;BME280;6581;42.662;23.402;2023-01-08T08:43:56;95919.44;;;2.01;100.00
13029;BME280;6581;42.662;23.402;2023-01-08T08:46:23;95911.63;;;2.14;100.00
13029;BME280;6581;42.662;23.402;2023-01-08T08:48:50;95918.69;;;2.28;100.00
13029;BME280;6581;42.662;23.402;2023-01-08T08:51:19;95915.13;;;2.37;100.00
13029;BME280;6581;42.662;23.402;2023-01-08T08:53:46;95910.97;;;2.50;100.00
13029;BME280;6581;42.662;23.402;2023-01-08T08:56:13;95907.97;;;2.56;100.00
13029;BME280;6581;42.662;23.402;2023-01-08T08:58:40;95903.50;;;2.71;100.00
13029;BME280;6581;42.662;23.402;2023-01-08T09:01:07;95910.38;;;2.80;100.00
13029;BME280;6581;42.662;23.402;2023-01-08T09:03:34;95901.28;;;2.78;100.00
13029;BME280;6581;42.662;23.402;2023-01-08T09:06:01;95911.13;;;2.94;100.00
13029;BME280;6581;42.662;23.402;2023-01-08T09:08:30;95904.13;;;3.03;100.00
13029;BME280;6581;42.662;23.402;2023-01-08T09:10:57;95900.63;;;3.08;100.00
13029;BME280;6581;42.662;23.402;2023-01-08T09:13:24;95893.00;;;3.11;100.00
13029;BME280;6581;42.662;23.402;2023-01-08T09:15:51;95894.19;;;3.28;100.00
13029;BME280;6581;42.662;23.402;2023-01-08T09:18:18;95894.22;;;3.50;100.00
13029;BME280;6581;42.662;23.402;2023-01-08T09:20:45;95900.06;;;3.47;100.00
13029;BME280;6581;42.662;23.402;2023-01-08T09:23:12;95897.31;;;3.52;100.00
13029;BME280;6581;42.662;23.402;2023-01-08T09:25:41;95891.38;;;3.60;100.00
13029;BME280;6581;42.662;23.402;2023-01-08T09:28:10;95885.00;;;3.75;100.00
13029;BME280;6581;42.662;23.402;2023-01-08T09:30:38;95879.19;;;3.86;100.00
13029;BME280;6581;42.662;23.402;2023-01-08T09:33:05;95873.22;;;3.94;100.00
13029;BME280;6581;42.662;23.402;2023-01-08T09:35:33;95875.94;;;4.12;100.00
13029;BME280;6581;42.662;23.402;2023-01-08T09:38:01;95874.28;;;4.16;100.00
13029;BME280;6581;42.662;23.402;2023-01-08T09:40:32;95868.66;;;4.39;100.00
13029;BME280;6581;42.662;23.402;2023-01-08T09:43:03;95854.81;;;4.56;98.61
13029;BME280;6581;42.662;23.402;2023-01-08T09:45:35;95854.19;;;4.51;98.02
13029;BME280;6581;42.662;23.402;2023-01-08T09:48:06;95850.19;;;4.53;98.85
13029;BME280;6581;42.662;23.402;2023-01-08T09:50:33;95850.66;;;4.64;97.23
13029;BME280;6581;42.662;23.402;2023-01-08T09:53:02;95850.53;;;4.69;97.59
13029;BME280;6581;42.662;23.402;2023-01-08T09:55:32;95842.22;;;4.75;97.74
13029;BME280;6581;42.662;23.402;2023-01-08T09:58:01;95829.72;;;4.89;96.80
13029;BME280;6581;42.662;23.402;2023-01-08T10:00:31;95830.03;;;5.05;95.51
13029;BME280;6581;42.662;23.402;2023-01-08T10:02:59;95826.63;;;5.05;95.51
13029;BME280;6581;42.662;23.402;2023-01-08T10:05:26;95818.00;;;5.13;95.82
13029;BME280;6581;42.662;23.402;2023-01-08T10:07:54;95817.22;;;5.29;95.83
13029;BME280;6581;42.662;23.402;2023-01-08T10:10:23;95828.97;;;5.41;92.70
13029;BME280;6581;42.662;23.402;2023-01-08T10:12:52;95818.28;;;5.46;93.23
13029;BME280;6581;42.662;23.402;2023-01-08T10:15:21;95811.78;;;5.43;92.94
13029;BME280;6581;42.662;23.402;2023-01-08T10:17:53;95808.53;;;5.55;92.77
13029;BME280;6581;42.662;23.402;2023-01-08T10:20:23;95810.66;;;5.70;92.25
13029;BME280;6581;42.662;23.402;2023-01-08T10:22:52;95805.53;;;5.82;91.46
13029;BME280;6581;42.662;23.402;2023-01-08T10:25:21;95801.69;;;5.88;90.38
13029;BME280;6581;42.662;23.402;2023-01-08T10:27:51;95800.44;;;5.94;90.24
13029;BME280;6581;42.662;23.402;2023-01-08T10:30:22;95798.09;;;5.93;89.91
13029;BME280;6581;42.662;23.402;2023-01-08T10:32:52;95789.41;;;6.01;87.69
13029;BME280;6581;42.662;23.402;2023-01-08T10:35:23;95793.09;;;6.08;87.08
13029;BME280;6581;42.662;23.402;2023-01-08T10:37:57;95782.75;;;6.03;86.89
13029;BME280;6581;42.662;23.402;2023-01-08T10:40:27;95779.19;;;6.08;87.96
13029;BME280;6581;42.662;23.402;2023-01-08T10:43:03;95774.97;;;6.15;87.62
13029;BME280;6581;42.662;23.402;2023-01-08T10:45:32;95771.19;;;6.25;86.92
13029;BME280;6581;42.662;23.402;2023-01-08T10:48:03;95771.28;;;6.37;86.52
13029;BME280;6581;42.662;23.402;2023-01-08T10:50:32;95766.63;;;6.43;86.02
13029;BME280;6581;42.662;23.402;2023-01-08T10:53:02;95758.03;;;6.54;85.59
13029;BME280;6581;42.662;23.402;2023-01-08T10:55:30;95749.88;;;6.47;85.55
13029;BME280;6581;42.662;23.402;2023-01-08T10:58:02;95750.28;;;6.58;85.53
13029;BME280;6581;42.662;23.402;2023-01-08T11:00:31;95752.13;;;6.57;85.39
13029;BME280;6581;42.662;23.402;2023-01-08T11:03:01;95756.91;;;6.64;84.44
13029;BME280;6581;42.662;23.402;2023-01-08T11:05:31;95747.84;;;6.74;84.05
13029;BME280;6581;42.662;23.402;2023-01-08T11:08:00;95746.66;;;6.83;83.07
13029;BME280;6581;42.662;23.402;2023-01-08T11:10:30;95745.50;;;6.93;82.24
13029;BME280;6581;42.662;23.402;2023-01-08T11:12:59;95745.78;;;7.00;81.97
13029;BME280;6581;42.662;23.402;2023-01-08T11:15:36;95747.31;;;7.01;80.21
13029;BME280;6581;42.662;23.402;2023-01-08T11:18:16;95743.72;;;7.05;79.32
13029;BME280;6581;42.662;23.402;2023-01-08T11:20:44;95742.34;;;7.20;78.69
13029;BME280;6581;42.662;23.402;2023-01-08T11:23:18;95735.31;;;7.24;77.69
13029;BME280;6581;42.662;23.402;2023-01-08T11:25:51;95741.81;;;7.27;77.98
13029;BME280;6581;42.662;23.402;2023-01-08T11:28:25;95737.91;;;7.45;77.17
13029;BME280;6581;42.662;23.402;2023-01-08T11:31:10;95731.78;;;7.53;76.01
13029;BME280;6581;42.662;23.402;2023-01-08T11:33:41;95733.91;;;7.60;75.23
13029;BME280;6581;42.662;23.402;2023-01-08T11:36:14;95728.06;;;7.66;75.19
13029;BME280;6581;42.662;23.402;2023-01-08T11:38:45;95730.59;;;7.75;74.41
13029;BME280;6581;42.662;23.402;2023-01-08T11:41:24;95720.63;;;7.80;74.34
13029;BME280;6581;42.662;23.402;2023-01-08T11:44:06;95710.50;;;7.94;76.48
13029;BME280;6581;42.662;23.402;2023-01-08T11:46:40;95714.25;;;7.93;73.70
13029;BME280;6581;42.662;23.402;2023-01-08T11:49:34;95713.81;;;8.03;72.78
13029;BME280;6581;42.662;23.402;2023-01-08T11:52:19;95701.94;;;8.10;71.81
13029;BME280;6581;42.662;23.402;2023-01-08T11:55:05;95708.97;;;8.30;71.45
13029;BME280;6581;42.662;23.402;2023-01-08T11:57:45;95702.72;;;8.34;70.57
13029;BME280;6581;42.662;23.402;2023-01-08T12:00:34;95701.06;;;8.42;70.53
13029;BME280;6581;42.662;23.402;2023-01-08T12:03:11;95697.53;;;8.50;70.68
13029;BME280;6581;42.662;23.402;2023-01-08T12:05:45;95701.00;;;8.66;69.42
13029;BME280;6581;42.662;23.402;2023-01-08T12:08:48;95690.56;;;8.70;69.13
13029;BME280;6581;42.662;23.402;2023-01-08T12:11:23;95680.00;;;8.70;68.91
13029;BME280;6581;42.662;23.402;2023-01-08T12:14:02;95676.84;;;8.80;68.37
13029;BME280;6581;42.662;23.402;2023-01-08T12:16:47;95677.59;;;8.93;67.66
13029;BME280;6581;42.662;23.402;2023-01-08T12:19:29;95679.06;;;9.06;67.15
13029;BME280;6581;42.662;23.402;2023-01-08T12:22:10;95668.25;;;9.11;67.34
13029;BME280;6581;42.662;23.402;2023-01-08T12:24:55;95663.00;;;9.26;66.28
13029;BME280;6581;42.662;23.402;2023-01-08T12:27:35;95670.00;;;9.34;65.78
13029;BME280;6581;42.662;23.402;2023-01-08T12:30:16;95670.34;;;9.33;64.89
13029;BME280;6581;42.662;23.402;2023-01-08T12:32:48;95667.63;;;9.45;64.89
13029;BME280;6581;42.662;23.402;2023-01-08T12:35:20;95661.50;;;9.57;65.30
13029;BME280;6581;42.662;23.402;2023-01-08T12:37:54;95661.56;;;9.60;63.83
13029;BME280;6581;42.662;23.402;2023-01-08T12:40:27;95661.06;;;9.70;63.23
13029;BME280;6581;42.662;23.402;2023-01-08T12:42:59;95649.09;;;9.76;62.62
13029;BME280;6581;42.662;23.402;2023-01-08T12:45:29;95655.84;;;9.74;62.75
13029;BME280;6581;42.662;23.402;2023-01-08T12:48:02;95646.63;;;9.84;62.31
13029;BME280;6581;42.662;23.402;2023-01-08T12:51:01;95649.34;;;10.03;61.25
13029;BME280;6581;42.662;23.402;2023-01-08T12:53:39;95648.78;;;10.13;61.08
13029;BME280;6581;42.662;23.402;2023-01-08T12:56:13;95643.44;;;10.25;61.36
13029;BME280;6581;42.662;23.402;2023-01-08T12:58:51;95647.75;;;10.33;61.07
13029;BME280;6581;42.662;23.402;2023-01-08T13:01:29;95639.38;;;10.31;60.22
13029;BME280;6581;42.662;23.402;2023-01-08T13:03:59;95640.81;;;10.44;60.37
13029;BME280;6581;42.662;23.402;2023-01-08T13:06:28;95630.78;;;10.53;58.94
13029;BME280;6581;42.662;23.402;2023-01-08T13:09:23;95637.91;;;10.49;59.33
13029;BME280;6581;42.662;23.402;2023-01-08T13:11:54;95629.78;;;10.42;59.45
13029;BME280;6581;42.662;23.402;2023-01-08T13:14:23;95637.97;;;10.53;59.08
13029;BME280;6581;42.662;23.402;2023-01-08T13:17:01;95625.56;;;10.57;58.94